Strona główna
METAR-TAF:

METAR-TAF

Lotnisko :

Port lotniczy Antsiranana

Antsiranana, Madagaskar

Szerokość geograficzna: 12-21S, Długość geograficzna: 049-18E, wysokość: 114 m

Aktualna obserwacja pogody

Raport powstał 7 godziny i 46 minut temu, godzina 15:00 UTC
Wiatr 8 kt od południowy wschód
Temperatura 27°C
Wilgotność 74%
Ciśnienie 1013 hPa
Widzialność 10 km lub więcej
Mało chmury na wysokości 2000 ft

METAR: FMNA 301500Z 14008KT 9999 FEW020 27/22 Q1013

czas: 01:46 (22:46 UTC)

Prognoza

Raport powstał 5 godziny i 46 minut temu, godzina 17:00 UTC
Prognoza ważna od 30 godzina 18 UTC do 31 godzina 18 UTC
Wiatr 10 kt od południowy wschód
Widzialność 10 km lub więcej
Rozproszone chmury na wysokości 2000 ft
Rozproszone chmury na wysokości 4000 ft
Prawdopodobieństwo 30% :
Przejściowo
od 31 godzina 06 UTC do 31 godzina 12 UTC
Widzialność: 4500 m
przelotny opad deszczu

TAF: FMNA 301700Z 3018/3118 14010KT 9999 SCT020 SCT040 PROB30 TEMPO 3106/3112 4500 SHRA

Obserwacja i prognoza pogody dla ponad 4000 lotnisk (raport METAR i TAF).

Dostępne stacje oznaczono żółtymi i czerwonymi punktami na mapie.

Najedź kursorem aby zobaczyć nazwę stacji.

Kliknij aby zobaczyć obserwacje i prognozy pogody.

Aby zmienić mapę: kliknij na zielony przycisk z czarnym krzyżykiem, aby powiększyć; na zielony przycisk z myślnikiem, aby pomniejszyć; na zielone strzałki, aby przejść do map sąsiednich.


METAR-TAF: